SBOSBO HAJ / EDDV
Speedbird OnlineSpeedbird Online HAJ / EDDV

Hannover Airport
14:27 5.3°C

Location Hannover, Germany
Latitude: 52.461101532
Longitude: 9.685079574580001
Web Wikipedia
Altitude 56 Meter / 183 Feet
Distance 663 KM / 412 Miles
from London.
Time Zone UTC +1 hours (Europe/Berlin)
Codes IATA: HAJ
ICAO: EDDV
Currency £1 equals EUR 1.14
Runways
RunwayLength (m)Surface
09C780Asphalt
09L3800Concrete
09R2340Concrete
27C780Asphalt
27L2340Concrete
27R3800Concrete
Radio
TypeDescriptionFrequency
AFISLANGEN INFORMATION119.825
APPDIRECTOR119.6
ATISATIS132.125
GNDGND121.95
RDRBREMEN RADAR131.325
TWRTWR120.175
Live ATC
METAR EDDV 311250Z AUTO 26016KT 9999 -DZ OVC012 05/03 Q1014 TEMPO 26020G30KT 3500 RADZ BKN009
TAF TAF AMD EDDV 311314Z 3113/0112 26015KT 9999 BKN012 TEMPO 3113/3117 26015G25KT 2500 RADZ BKN007 BECMG 3115/3117 27015G25KT SCT015 BKN025 BECMG 3121/3123 24014KT
Weather As Of 31 Jan 2023 14:27
Description Light intensity drizzle
Wind 33 km/h from West (260°)
Cloud Cover 100%
Precipitation Rain: none, Snow: none
Sunrise 08:05
Sunset 17:04
Lounges Karl-Jatho Lounge (Temporarily Closed), Between Terminal A and B
Rotations During the last 90 days there were
125 flights from LHR
123 flights to LHR



Support Speedbird Online

© 2017-2023 Speedbird Online